Time;durP1;ratioP1;P1;durP2;ratioP2;P2;SDS_P1;SDS_P2;PMS_P1;PMS_P2;Temp;Humidity;BMP_temperature;BMP_pressure;BME280_temperature;BME280_humidity;BME280_pressure;Samples;Min_cycle;Max_cycle;Signal;HPM_P1;HPM_P2
2021/07/05 00:01:32;;;;;;;5.80;5.20;;;20.80;1.00;;;;;;5077132;28;20191;-66
2021/07/05 00:03:58;;;;;;;5.17;4.70;;;20.90;1.00;;;;;;5077073;28;20187;-66
2021/07/05 00:06:24;;;;;;;5.33;4.83;;;21.00;1.00;;;;;;5075969;28;21000;-66
2021/07/05 00:08:49;;;;;;;5.77;5.30;;;21.00;1.00;;;;;;5076904;28;20176;-66
2021/07/05 00:11:15;;;;;;;5.27;4.77;;;20.90;1.00;;;;;;5076963;28;20183;-66
2021/07/05 00:13:40;;;;;;;6.70;6.10;;;20.80;1.00;;;;;;5077014;28;20184;-66
2021/07/05 00:16:06;;;;;;;6.50;5.90;;;20.90;1.00;;;;;;5076919;28;20255;-66
2021/07/05 00:18:32;;;;;;;5.70;5.20;;;20.80;1.00;;;;;;5076550;28;20271;-65
2021/07/05 00:20:57;;;;;;;6.17;5.63;;;20.70;1.00;;;;;;5076824;28;20196;-66
2021/07/05 00:23:23;;;;;;;6.10;5.50;;;20.50;1.00;;;;;;5076794;28;20180;-66
2021/07/05 00:25:49;;;;;;;5.73;5.27;;;20.70;1.00;;;;;;5076642;28;20204;-66
2021/07/05 00:28:15;;;;;;;5.67;5.17;;;20.60;1.00;;;;;;5076479;28;20423;-66
2021/07/05 00:30:40;;;;;;;6.60;5.93;;;20.60;1.00;;;;;;5076637;28;20569;-65
2021/07/05 00:33:06;;;;;;;7.40;5.87;;;20.50;1.00;;;;;;5076553;28;20172;-66
2021/07/05 00:35:33;;;;;;;5.93;5.43;;;20.50;1.00;;;;;;5076535;28;20251;-66
2021/07/05 00:37:59;;;;;;;5.60;5.10;;;20.40;1.00;;;;;;5076444;28;20780;-66
2021/07/05 00:40:26;;;;;;;4.90;4.40;;;20.20;1.00;;;;;;5076465;28;20429;-66
2021/07/05 00:42:52;;;;;;;6.57;5.60;;;20.10;1.00;;;;;;5076447;28;20418;-66
2021/07/05 00:45:19;;;;;;;5.30;4.87;;;20.20;1.00;;;;;;5076385;28;20461;-66
2021/07/05 00:47:45;;;;;;;6.27;4.90;;;20.20;1.00;;;;;;5075978;28;20528;-66
2021/07/05 00:50:13;;;;;;;5.87;5.37;;;20.20;1.00;;;;;;5076217;28;20501;-66
2021/07/05 00:52:40;;;;;;;5.30;4.80;;;20.20;1.00;;;;;;5076213;28;20434;-66
2021/07/05 00:55:08;;;;;;;6.30;5.70;;;20.30;1.00;;;;;;5076159;28;20429;-66
2021/07/05 00:57:34;;;;;;;7.87;5.37;;;20.20;1.00;;;;;;5076128;28;20770;-66
2021/07/05 01:00:00;;;;;;;5.10;4.70;;;20.30;1.00;;;;;;5075959;28;20438;-66
2021/07/05 01:02:26;;;;;;;5.93;4.80;;;20.30;1.00;;;;;;5075918;28;20494;-66
2021/07/05 01:04:52;;;;;;;5.47;4.97;;;20.30;1.00;;;;;;5076003;28;20430;-66
2021/07/05 01:07:19;;;;;;;5.93;5.33;;;20.30;1.00;;;;;;5075822;28;20476;-66
2021/07/05 01:09:44;;;;;;;5.77;4.70;;;20.10;1.00;;;;;;5075898;28;20418;-65
2021/07/05 01:12:11;;;;;;;4.97;4.57;;;20.10;1.00;;;;;;5075914;28;20774;-65
2021/07/05 01:14:37;;;;;;;4.90;4.50;;;20.10;1.00;;;;;;5075863;28;20168;-65
2021/07/05 01:17:10;;;;;;;5.40;4.90;;;20.30;1.00;;;;;;5075693;28;20769;-65
2021/07/05 01:19:40;;;;;;;6.57;4.43;;;20.10;1.00;;;;;;5075716;28;20430;-65
2021/07/05 01:22:06;;;;;;;5.27;4.77;;;20.10;1.00;;;;;;5075986;28;20818;-66
2021/07/05 01:24:31;;;;;;;5.63;5.03;;;20.30;1.00;;;;;;5076012;28;20915;-66
2021/07/05 01:26:57;;;;;;;5.67;5.17;;;20.30;1.00;;;;;;5074738;28;20458;-66
2021/07/05 01:29:22;;;;;;;5.93;5.33;;;20.30;1.00;;;;;;5075394;28;20609;-66
2021/07/05 01:31:48;;;;;;;5.23;4.77;;;20.20;1.00;;;;;;5075450;28;20188;-66
2021/07/05 01:34:13;;;;;;;5.40;4.90;;;20.20;1.00;;;;;;5075460;28;20180;-65
2021/07/05 01:36:39;;;;;;;5.30;4.80;;;20.30;1.00;;;;;;5075351;28;20601;-68
2021/07/05 01:39:07;;;;;;;5.73;5.23;;;20.30;1.00;;;;;;5075249;28;20191;-69
2021/07/05 01:41:32;;;;;;;7.40;5.50;;;20.40;1.00;;;;;;5075305;28;20442;-69
2021/07/05 01:43:58;;;;;;;6.03;4.87;;;20.40;1.00;;;;;;5075197;28;20437;-65
2021/07/05 01:46:24;;;;;;;5.90;5.40;;;20.20;1.00;;;;;;5075079;28;20260;-68
2021/07/05 01:48:49;;;;;;;6.80;6.07;;;19.90;1.00;;;;;;5075040;28;20609;-65
2021/07/05 01:51:15;;;;;;;6.30;5.30;;;19.80;31.80;;;;;;5075092;28;20212;-69
2021/07/05 01:53:41;;;;;;;6.47;5.80;;;20.00;55.20;;;;;;5074922;28;20188;-66
2021/07/05 01:56:06;;;;;;;6.33;5.40;;;20.00;43.10;;;;;;5075122;28;20191;-66
2021/07/05 01:58:32;;;;;;;6.13;5.63;;;20.00;34.70;;;;;;5074216;28;20263;-65
2021/07/05 02:00:58;;;;;;;6.63;6.00;;;20.10;41.00;;;;;;5075014;28;20172;-65
2021/07/05 02:03:24;;;;;;;6.73;6.07;;;19.80;99.90;;;;;;5073921;28;20524;-65
2021/07/05 02:05:49;;;;;;;7.53;6.30;;;19.70;99.90;;;;;;5074776;28;20196;-67
2021/07/05 02:08:17;;;;;;;7.77;6.97;;;19.70;99.90;;;;;;5074640;28;20418;-65
2021/07/05 02:10:44;;;;;;;8.60;7.40;;;19.60;99.90;;;;;;5074806;28;20168;-68
2021/07/05 02:13:16;;;;;;;7.43;6.70;;;19.50;99.90;;;;;;5074598;28;20414;-68
2021/07/05 02:15:43;;;;;;;7.83;6.97;;;19.40;99.90;;;;;;5074849;28;20458;-68
2021/07/05 02:18:09;;;;;;;8.70;7.40;;;19.30;99.90;;;;;;5073342;28;20442;-68
2021/07/05 02:20:35;;;;;;;8.73;7.90;;;19.40;99.90;;;;;;5074535;28;20418;-68
2021/07/05 02:23:01;;;;;;;9.20;7.03;;;19.10;99.90;;;;;;5074528;28;20434;-68
2021/07/05 02:25:29;;;;;;;8.80;7.50;;;19.00;99.90;;;;;;5074362;28;20522;-68
2021/07/05 02:27:58;;;;;;;8.43;7.53;;;19.00;99.90;;;;;;5074256;28;20629;-68
2021/07/05 02:30:25;;;;;;;11.03;7.23;;;19.00;99.90;;;;;;5074232;28;20426;-68
2021/07/05 02:32:52;;;;;;;7.70;6.77;;;19.00;99.90;;;;;;5073349;28;20434;-68
2021/07/05 02:35:21;;;;;;;6.93;6.23;;;19.20;99.90;;;;;;5074406;28;20430;-68
2021/07/05 02:37:48;;;;;;;7.47;6.77;;;19.10;99.90;;;;;;5073995;28;20428;-68
2021/07/05 02:40:17;;;;;;;11.30;7.03;;;19.00;99.90;;;;;;5074010;28;20491;-68
2021/07/05 02:42:43;;;;;;;7.70;7.00;;;19.00;99.90;;;;;;5074102;28;20422;-68
2021/07/05 02:45:17;;;;;;;8.07;6.97;;;19.00;99.90;;;;;;5074056;28;20418;-68
2021/07/05 02:47:43;;;;;;;7.93;7.00;;;18.80;99.90;;;;;;5072893;28;20536;-68
2021/07/05 02:50:09;;;;;;;8.07;7.27;;;18.70;99.90;;;;;;5073802;28;20414;-68
2021/07/05 02:52:36;;;;;;;9.07;6.80;;;18.60;99.90;;;;;;5073727;28;20584;-68
2021/07/05 02:55:05;;;;;;;9.23;8.23;;;18.60;99.90;;;;;;5073946;28;20484;-68
2021/07/05 02:57:31;;;;;;;8.77;7.87;;;18.80;99.90;;;;;;5073663;28;20498;-68
2021/07/05 03:00:21;;;;;;;10.20;7.57;;;18.70;99.90;;;;;;5073707;28;20501;-66
2021/07/05 03:02:47;;;;;;;8.53;7.73;;;18.50;99.90;;;;;;5073851;28;20293;-68
2021/07/05 03:05:16;;;;;;;9.57;7.33;;;18.70;99.90;;;;;;5073743;28;20766;-66
2021/07/05 03:07:42;;;;;;;10.70;9.60;;;18.80;99.90;;;;;;5073591;28;20477;-66
2021/07/05 03:10:09;;;;;;;10.53;9.30;;;18.80;99.90;;;;;;5072647;28;20879;-65
2021/07/05 03:12:35;;;;;;;13.47;10.37;;;18.80;99.90;;;;;;5073649;28;20265;-69
2021/07/05 03:15:02;;;;;;;13.63;10.60;;;18.80;99.90;;;;;;5073704;28;20430;-68
2021/07/05 03:17:29;;;;;;;12.40;11.00;;;18.90;99.90;;;;;;5073450;28;20438;-67
2021/07/05 03:19:54;;;;;;;15.60;11.97;;;19.00;99.90;;;;;;5073479;28;20894;-68
2021/07/05 03:22:20;;;;;;;13.80;12.30;;;19.10;99.90;;;;;;5073795;28;20423;-68
2021/07/05 03:24:45;;;;;;;14.80;12.30;;;19.10;99.90;;;;;;5073625;28;20485;-68
2021/07/05 03:27:12;;;;;;;16.47;13.77;;;19.10;99.90;;;;;;5073382;28;20203;-68
2021/07/05 03:29:38;;;;;;;14.07;12.57;;;19.10;99.90;;;;;;5073333;28;20247;-68
2021/07/05 03:32:05;;;;;;;17.13;12.67;;;19.00;99.90;;;;;;5072462;28;20522;-68
2021/07/05 03:34:32;;;;;;;13.77;12.37;;;19.10;99.90;;;;;;5073502;28;20422;-68
2021/07/05 03:36:57;;;;;;;16.37;13.23;;;19.20;99.90;;;;;;5073502;28;20441;-69
2021/07/05 03:39:23;;;;;;;15.60;13.40;;;19.20;99.90;;;;;;5073373;28;20521;-68
2021/07/05 03:41:49;;;;;;;17.90;14.03;;;19.40;99.90;;;;;;5073558;28;20222;-70
2021/07/05 03:44:14;;;;;;;16.93;13.40;;;19.30;99.90;;;;;;5073404;28;20961;-66
2021/07/05 03:46:40;;;;;;;16.77;13.60;;;19.30;99.90;;;;;;5073209;28;20656;-66
2021/07/05 03:49:05;;;;;;;17.13;13.13;;;19.40;99.90;;;;;;5073292;28;20604;-65
2021/07/05 03:51:32;;;;;;;21.73;13.50;;;19.30;99.90;;;;;;5073445;28;20172;-64
2021/07/05 03:53:58;;;;;;;19.50;15.07;;;19.40;99.90;;;;;;5073212;28;20199;-64
2021/07/05 03:56:23;;;;;;;16.20;13.43;;;19.30;99.90;;;;;;5073242;28;20430;-65
2021/07/05 03:58:49;;;;;;;17.40;15.17;;;19.30;99.90;;;;;;5073118;28;20560;-65
2021/07/05 04:01:15;;;;;;;18.70;15.13;;;19.30;99.90;;;;;;5073213;28;20228;-68
2021/07/05 04:03:40;;;;;;;18.40;15.53;;;19.30;99.90;;;;;;5073295;28;20218;-68
2021/07/05 04:06:06;;;;;;;17.73;14.70;;;19.10;99.90;;;;;;5073087;28;20230;-68
2021/07/05 04:08:34;;;;;;;19.67;14.77;;;19.00;99.90;;;;;;5072943;28;20179;-68
2021/07/05 04:11:00;;;;;;;16.03;14.43;;;18.90;99.90;;;;;;5073175;28;20255;-68
2021/07/05 04:13:27;;;;;;;16.10;13.63;;;19.00;99.90;;;;;;5073121;28;20890;-68
2021/07/05 04:15:54;;;;;;;18.83;14.37;;;19.10;99.90;;;;;;5072915;28;20465;-68
2021/07/05 04:18:20;;;;;;;15.87;13.93;;;19.20;99.90;;;;;;5072943;28;20479;-68
2021/07/05 04:20:46;;;;;;;17.90;15.90;;;19.40;99.90;;;;;;5073160;28;20816;-69
2021/07/05 04:23:12;;;;;;;16.93;14.80;;;19.30;99.90;;;;;;5076706;28;20820;-69
2021/07/05 04:25:38;;;;;;;18.07;14.87;;;19.20;99.90;;;;;;5076652;28;20430;-69
2021/07/05 04:28:04;;;;;;;16.00;14.30;;;19.10;99.90;;;;;;5076584;28;20204;-69
2021/07/05 04:30:31;;;;;;;17.10;15.33;;;19.10;99.90;;;;;;5076515;28;20226;-69
2021/07/05 04:32:57;;;;;;;18.70;15.50;;;19.20;99.90;;;;;;5076853;28;20422;-70
2021/07/05 04:35:23;;;;;;;14.53;13.10;;;19.40;99.90;;;;;;5076706;28;20454;-70
2021/07/05 04:37:50;;;;;;;15.73;12.60;;;19.50;99.90;;;;;;5075491;28;20433;-69
2021/07/05 04:40:20;;;;;;;15.60;14.00;;;19.60;99.90;;;;;;5075450;28;20906;-69
2021/07/05 04:42:47;;;;;;;18.00;13.17;;;19.70;99.90;;;;;;5076600;28;20893;-70
2021/07/05 04:45:14;;;;;;;16.20;12.80;;;19.70;99.90;;;;;;5076349;28;20525;-69
2021/07/05 04:47:41;;;;;;;16.00;13.37;;;19.80;99.90;;;;;;5075061;28;20494;-66
2021/07/05 04:50:09;;;;;;;14.10;12.60;;;19.90;99.90;;;;;;5076177;28;20774;-66
2021/07/05 04:52:35;;;;;;;16.47;13.60;;;20.00;99.90;;;;;;5076368;28;20825;-66
2021/07/05 04:55:02;;;;;;;15.07;13.47;;;20.10;99.90;;;;;;5076331;28;20750;-66
2021/07/05 04:57:29;;;;;;;14.43;13.03;;;20.00;99.90;;;;;;5075994;28;20425;-66
2021/07/05 04:59:54;;;;;;;14.93;13.37;;;20.00;99.90;;;;;;5074918;28;20438;-66
2021/07/05 05:02:24;;;;;;;15.10;12.77;;;19.90;99.90;;;;;;5076091;28;20964;-66
2021/07/05 05:04:50;;;;;;;16.10;14.20;;;19.90;99.90;;;;;;5076044;28;20273;-66
2021/07/05 05:07:16;;;;;;;15.20;13.60;;;20.00;99.90;;;;;;5075825;28;20494;-66
2021/07/05 05:09:42;;;;;;;14.83;13.00;;;20.00;99.90;;;;;;5075660;28;20491;-66
2021/07/05 05:12:08;;;;;;;16.80;15.00;;;20.00;99.90;;;;;;5075769;28;20430;-66
2021/07/05 05:14:34;;;;;;;15.33;13.33;;;20.10;99.90;;;;;;5075849;28;20414;-66
2021/07/05 05:17:00;;;;;;;15.13;12.53;;;20.10;99.90;;;;;;5075952;28;20434;-66
2021/07/05 05:19:25;;;;;;;15.07;13.47;;;20.20;99.90;;;;;;5075640;28;20180;-65
2021/07/05 05:21:51;;;;;;;15.00;13.50;;;20.20;99.90;;;;;;5075639;28;20237;-65
2021/07/05 05:24:17;;;;;;;14.13;12.73;;;20.10;99.90;;;;;;5075741;28;20222;-65
2021/07/05 05:26:42;;;;;;;15.30;12.93;;;19.90;99.90;;;;;;5075089;28;20203;-65
2021/07/05 05:29:08;;;;;;;16.17;13.50;;;20.00;99.90;;;;;;5075383;28;20183;-65
2021/07/05 05:31:35;;;;;;;13.87;12.43;;;19.90;99.90;;;;;;5075428;28;20373;-65
2021/07/05 05:34:01;;;;;;;14.53;12.83;;;19.90;99.90;;;;;;5074680;28;20180;-65
2021/07/05 05:36:27;;;;;;;15.77;14.17;;;19.80;99.90;;;;;;5075509;28;20890;-65
2021/07/05 05:38:52;;;;;;;16.33;14.60;;;20.00;99.90;;;;;;5075121;28;20825;-65
2021/07/05 05:41:18;;;;;;;14.30;12.80;;;20.10;99.90;;;;;;5075187;28;20265;-65
2021/07/05 05:43:44;;;;;;;14.60;13.10;;;19.80;99.90;;;;;;5075123;28;20184;-65
2021/07/05 05:46:15;;;;;;;14.23;12.67;;;19.90;99.90;;;;;;5075037;28;20207;-65
2021/07/05 05:48:42;;;;;;;16.40;12.93;;;20.10;99.90;;;;;;5074943;28;20172;-65
2021/07/05 05:51:08;;;;;;;12.40;11.10;;;20.20;99.90;;;;;;5074066;28;20454;-66
2021/07/05 05:53:34;;;;;;;15.40;12.90;;;20.30;99.90;;;;;;5074719;28;20454;-66
2021/07/05 05:55:59;;;;;;;13.20;11.90;;;20.30;99.90;;;;;;5074979;28;20429;-66
2021/07/05 05:58:25;;;;;;;15.20;12.23;;;20.40;99.90;;;;;;5074758;28;20203;-66
2021/07/05 06:00:50;;;;;;;14.93;11.80;;;20.40;99.90;;;;;;5074881;28;20184;-66
2021/07/05 06:03:16;;;;;;;13.47;11.60;;;20.60;99.90;;;;;;5074886;28;20172;-66
2021/07/05 06:05:42;;;;;;;14.63;11.03;;;20.70;79.40;;;;;;5074839;28;20572;-65
2021/07/05 06:08:07;;;;;;;14.73;12.03;;;20.60;44.30;;;;;;5073631;28;20251;-65
2021/07/05 06:10:33;;;;;;;13.27;11.97;;;20.30;99.90;;;;;;5074837;28;20650;-68
2021/07/05 06:12:59;;;;;;;14.37;11.30;;;20.40;98.50;;;;;;5073798;28;20207;-69
2021/07/05 06:15:25;;;;;;;14.03;11.83;;;20.40;99.90;;;;;;5074719;28;20263;-65
2021/07/05 06:17:51;;;;;;;14.23;11.60;;;20.30;99.90;;;;;;5074648;28;20484;-65
2021/07/05 06:20:17;;;;;;;14.57;11.37;;;20.00;99.90;;;;;;5073337;28;20438;-68
2021/07/05 06:22:48;;;;;;;13.90;12.37;;;20.00;99.90;;;;;;5074451;28;20473;-68
2021/07/05 06:25:14;;;;;;;14.57;11.97;;;19.70;99.90;;;;;;5074343;28;20716;-65
2021/07/05 06:27:40;;;;;;;14.00;12.60;;;20.10;99.90;;;;;;5074100;28;20556;-65
2021/07/05 06:30:06;;;;;;;15.33;13.70;;;20.20;99.90;;;;;;5074124;28;20257;-65
2021/07/05 06:32:32;;;;;;;13.13;11.83;;;20.20;99.90;;;;;;5073075;28;20445;-65
2021/07/05 06:34:58;;;;;;;12.90;11.50;;;20.30;99.90;;;;;;5073676;28;20760;-65
2021/07/05 06:37:23;;;;;;;13.33;11.90;;;20.50;99.80;;;;;;5073793;28;20188;-65
2021/07/05 06:39:49;;;;;;;14.23;12.37;;;20.90;71.00;;;;;;5073946;28;20253;-68
2021/07/05 06:42:14;;;;;;;14.40;12.40;;;21.00;1.00;;;;;;5074191;28;20625;-66
2021/07/05 06:44:40;;;;;;;13.57;12.17;;;21.10;1.00;;;;;;5074376;28;20487;-69
2021/07/05 06:47:05;;;;;;;14.40;12.90;;;20.90;1.00;;;;;;5074142;28;20284;-62
2021/07/05 06:49:31;;;;;;;13.87;12.47;;;20.60;1.00;;;;;;5070449;28;20198;-66
2021/07/05 06:51:57;;;;;;;16.87;14.37;;;20.80;1.00;;;;;;5062708;28;20211;-68
2021/07/05 06:54:22;;;;;;;15.60;12.60;;;20.40;1.00;;;;;;5065596;28;20203;-67
2021/07/05 06:56:48;;;;;;;17.20;13.37;;;20.40;1.00;;;;;;5063952;28;20238;-66
2021/07/05 06:59:13;;;;;;;15.30;13.33;;;20.30;1.00;;;;;;5071540;28;20196;-64
2021/07/05 07:01:39;;;;;;;15.93;12.00;;;20.40;16.00;;;;;;5074504;28;20617;-66
2021/07/05 07:04:05;;;;;;;13.67;12.37;;;21.10;1.00;;;;;;5074754;28;20284;-67
2021/07/05 07:06:31;;;;;;;17.20;14.37;;;21.20;1.00;;;;;;5067719;28;20204;-66
2021/07/05 07:08:56;;;;;;;15.57;13.20;;;21.30;1.00;;;;;;5066229;28;20188;-67
2021/07/05 07:11:23;;;;;;;14.87;13.20;;;21.60;1.00;;;;;;5075266;28;20187;-66
2021/07/05 07:13:48;;;;;;;16.10;12.47;;;21.90;1.00;;;;;;5074846;28;20429;-66
2021/07/05 07:16:17;;;;;;;14.03;12.53;;;22.40;99.90;;;;;;5074600;28;20438;-68
2021/07/05 07:21:26;;;;;;;17.67;12.53;;;23.20;1.00;;;;;;5073509;28;20484;-67
2021/07/05 07:23:53;;;;;;;14.93;13.30;;;23.60;1.00;;;;;;5073505;28;20442;-67
2021/07/05 07:26:20;;;;;;;14.70;13.10;;;24.20;99.90;;;;;;5073442;28;20215;-67
2021/07/05 07:28:50;;;;;;;15.17;11.93;;;25.30;1.00;;;;;;5071968;28;20538;-67
2021/07/05 07:31:16;;;;;;;15.43;13.83;;;25.60;1.00;;;;;;5073617;28;20422;-73
2021/07/05 07:33:41;;;;;;;13.43;11.80;;;26.60;99.90;;;;;;5073556;28;20512;-69
2021/07/05 07:36:07;;;;;;;13.23;11.93;;;27.70;99.90;;;;;;5073014;28;20192;-69
2021/07/05 07:38:38;;;;;;;12.47;11.27;;;26.80;1.00;;;;;;5073238;28;20188;-68
2021/07/05 07:41:03;;;;;;;14.17;12.77;;;26.50;1.00;;;;;;5073168;28;20277;-68
2021/07/05 07:43:29;;;;;;;13.20;11.80;;;25.40;1.00;;;;;;5072829;28;20468;-67
2021/07/05 07:45:54;;;;;;;11.73;10.63;;;25.60;1.00;;;;;;5072321;28;20190;-67
2021/07/05 07:48:20;;;;;;;12.50;11.40;;;26.00;1.00;;;;;;5073060;28;20183;-67
2021/07/05 07:50:46;;;;;;;12.87;11.20;;;25.40;14.20;;;;;;5072989;28;20194;-69
2021/07/05 07:53:11;;;;;;;12.20;10.90;;;25.00;1.00;;;;;;5073092;28;20227;-70
2021/07/05 07:55:37;;;;;;;12.30;11.10;;;23.90;99.90;;;;;;5072510;28;20173;-70
2021/07/05 07:58:02;;;;;;;10.33;9.40;;;24.10;92.60;;;;;;5066086;28;20180;-69
2021/07/05 08:00:31;;;;;;;10.20;9.30;;;24.30;1.00;;;;;;5057036;28;20184;-66
2021/07/05 08:02:57;;;;;;;12.47;10.07;;;24.70;1.00;;;;;;5055545;28;20267;-66
2021/07/05 08:05:22;;;;;;;11.27;10.17;;;24.80;1.00;;;;;;5057017;28;20519;-66
2021/07/05 08:07:48;;;;;;;10.27;9.47;;;24.10;1.00;;;;;;5056553;28;20295;-67
2021/07/05 08:10:16;;;;;;;10.43;9.53;;;23.90;1.00;;;;;;5056580;28;20181;-67
2021/07/05 08:12:43;;;;;;;9.80;8.80;;;23.80;1.00;;;;;;5056821;28;20184;-66
2021/07/05 08:15:09;;;;;;;10.30;9.17;;;23.80;39.90;;;;;;5056849;28;20427;-66
2021/07/05 08:17:35;;;;;;;10.50;9.57;;;23.80;99.90;;;;;;5056648;28;20441;-66
2021/07/05 08:20:02;;;;;;;13.23;10.73;;;23.60;99.90;;;;;;5056589;28;20423;-67
2021/07/05 08:22:27;;;;;;;12.80;10.90;;;23.60;99.90;;;;;;5056836;28;20431;-67
2021/07/05 08:24:55;;;;;;;11.20;10.20;;;23.70;1.00;;;;;;5056766;28;20903;-66
2021/07/05 08:27:21;;;;;;;12.27;11.10;;;23.70;1.00;;;;;;5056472;28;20212;-65
2021/07/05 08:29:47;;;;;;;12.00;10.90;;;23.90;99.90;;;;;;5055497;28;20426;-69
2021/07/05 08:32:13;;;;;;;12.70;11.40;;;23.40;59.40;;;;;;5056358;28;20924;-68
2021/07/05 08:34:38;;;;;;;11.53;10.30;;;23.00;1.00;;;;;;5056667;28;20214;-68
2021/07/05 08:37:04;;;;;;;11.17;10.17;;;23.20;78.50;;;;;;5056475;28;20438;-68
2021/07/05 08:39:29;;;;;;;11.40;10.40;;;23.30;1.00;;;;;;5056549;28;20208;-68
2021/07/05 08:41:55;;;;;;;10.73;9.63;;;24.00;99.90;;;;;;5055621;28;20563;-69
2021/07/05 08:44:22;;;;;;;12.60;11.37;;;24.40;99.90;;;;;;5055372;28;20280;-69
2021/07/05 08:46:49;;;;;;;10.10;9.20;;;24.40;1.00;;;;;;5056263;28;20201;-65
2021/07/05 08:49:15;;;;;;;12.60;10.40;;;24.70;1.00;;;;;;5055107;28;20522;-64
2021/07/05 08:51:41;;;;;;;11.13;10.23;;;25.10;1.00;;;;;;5056572;28;20424;-65
2021/07/05 08:54:07;;;;;;;12.90;10.83;;;25.10;99.90;;;;;;5056605;28;20500;-66
2021/07/05 08:56:33;;;;;;;11.57;10.47;;;25.40;1.00;;;;;;5056369;28;20428;-68
2021/07/05 08:59:00;;;;;;;11.03;9.80;;;24.90;1.00;;;;;;5074289;28;20438;-68
2021/07/05 09:01:28;;;;;;;11.10;10.07;;;24.70;99.90;;;;;;5075248;28;20438;-71
2021/07/05 09:03:56;;;;;;;10.80;9.80;;;25.10;99.90;;;;;;5076208;28;20887;-69
2021/07/05 09:06:24;;;;;;;11.37;10.37;;;26.00;1.00;;;;;;5075971;28;20520;-68
2021/07/05 09:08:56;;;;;;;9.87;8.93;;;25.10;1.00;;;;;;5073776;28;20523;-67
2021/07/05 09:11:37;;;;;;;9.53;8.70;;;23.70;1.00;;;;;;5076162;28;20430;-67
2021/07/05 09:14:31;;;;;;;9.83;9.03;;;23.80;99.90;;;;;;5076110;28;20426;-68
2021/07/05 09:16:57;;;;;;;10.30;9.50;;;23.60;99.90;;;;;;5075623;28;20454;-67
2021/07/05 09:19:32;;;;;;;11.73;10.60;;;23.30;1.00;;;;;;5076254;28;20513;-64
2021/07/05 09:22:04;;;;;;;10.57;9.43;;;23.60;99.90;;;;;;5076217;28;20500;-63
2021/07/05 09:24:35;;;;;;;10.27;9.30;;;23.40;99.90;;;;;;5075662;28;20449;-63
2021/07/05 09:27:08;;;;;;;10.63;9.13;;;23.20;99.90;;;;;;5076054;28;20474;-68
2021/07/05 09:29:34;;;;;;;8.97;8.10;;;23.60;1.00;;;;;;5074829;28;20514;-69
2021/07/05 09:32:03;;;;;;;10.03;9.13;;;23.70;99.90;;;;;;5076022;28;20510;-69
2021/07/05 09:34:43;;;;;;;9.30;8.60;;;23.50;85.60;;;;;;5075333;28;20465;-70
2021/07/05 09:37:20;;;;;;;10.47;9.43;;;23.90;99.90;;;;;;5074454;28;20438;-66
2021/07/05 09:40:10;;;;;;;8.70;7.97;;;23.50;22.50;;;;;;5075265;28;20430;-66
2021/07/05 09:42:43;;;;;;;8.77;7.97;;;23.70;1.00;;;;;;5075217;28;20899;-64
2021/07/05 09:45:13;;;;;;;8.30;7.43;;;24.20;99.90;;;;;;5075479;28;20426;-66
2021/07/05 09:47:39;;;;;;;8.40;7.63;;;24.40;1.00;;;;;;5074852;28;20470;-66
2021/07/05 09:50:16;;;;;;;8.43;7.63;;;24.70;1.00;;;;;;5074886;28;20431;-65
2021/07/05 09:52:42;;;;;;;7.10;6.60;;;24.90;1.00;;;;;;5074902;28;20533;-64
2021/07/05 09:55:17;;;;;;;8.47;7.67;;;24.90;1.00;;;;;;5074822;28;20433;-65
2021/07/05 09:57:51;;;;;;;10.40;7.30;;;24.90;1.00;;;;;;5067470;28;20467;-65
2021/07/05 10:00:20;;;;;;;7.90;7.30;;;25.20;99.90;;;;;;5057049;28;20448;-65
2021/07/05 10:03:14;;;;;;;8.53;7.80;;;25.00;1.00;;;;;;5073366;28;20438;-63
2021/07/05 10:05:47;;;;;;;7.70;7.10;;;25.40;1.00;;;;;;5073981;28;20442;-63
2021/07/05 10:08:15;;;;;;;8.30;7.70;;;25.60;99.90;;;;;;5073154;28;20441;-63
2021/07/05 10:10:43;;;;;;;8.57;7.87;;;25.60;99.90;;;;;;5074118;28;20452;-63
2021/07/05 10:13:18;;;;;;;7.47;6.87;;;25.60;99.90;;;;;;5073831;28;20487;-64
2021/07/05 10:15:46;;;;;;;10.80;6.80;;;25.50;99.90;;;;;;5070962;28;20437;-64
2021/07/05 10:18:12;;;;;;;6.80;6.30;;;25.90;99.90;;;;;;5073869;28;20449;-65
2021/07/05 10:20:43;;;;;;;6.70;6.20;;;26.10;99.90;;;;;;5073004;28;20883;-67
2021/07/05 10:23:16;;;;;;;6.00;5.50;;;25.70;99.90;;;;;;5074340;28;20501;-68
2021/07/05 10:25:44;;;;;;;6.90;6.10;;;25.10;99.90;;;;;;5072733;28;20430;-67
2021/07/05 10:28:10;;;;;;;7.40;5.90;;;25.70;99.20;;;;;;5074102;28;20460;-66
2021/07/05 10:30:37;;;;;;;6.33;5.83;;;25.40;99.90;;;;;;5073891;28;20759;-66
2021/07/05 10:33:04;;;;;;;5.60;5.20;;;25.40;99.90;;;;;;5073462;28;20456;-67
2021/07/05 10:35:51;;;;;;;6.50;5.90;;;25.50;99.90;;;;;;5074014;28;20513;-67
2021/07/05 10:38:41;;;;;;;4.73;4.43;;;24.80;99.90;;;;;;5071198;28;20422;-67
2021/07/05 10:41:11;;;;;;;5.53;5.07;;;25.40;96.00;;;;;;5073247;28;20540;-67
2021/07/05 10:43:45;;;;;;;5.20;4.80;;;25.30;99.90;;;;;;5073698;28;20422;-68
2021/07/05 10:46:11;;;;;;;5.50;5.10;;;25.00;99.90;;;;;;5073169;28;20550;-68
2021/07/05 10:48:42;;;;;;;5.60;5.20;;;25.30;99.90;;;;;;5073987;28;20753;-68
2021/07/05 10:51:15;;;;;;;5.57;5.17;;;25.30;99.90;;;;;;5071469;28;20518;-64
2021/07/05 10:53:46;;;;;;;5.77;5.30;;;25.30;99.90;;;;;;5073509;28;20446;-65
2021/07/05 10:56:43;;;;;;;5.70;5.30;;;25.50;99.90;;;;;;5072521;28;20441;-64
2021/07/05 10:59:12;;;;;;;6.47;5.97;;;25.70;99.90;;;;;;5072994;28;20434;-62
2021/07/05 11:01:44;;;;;;;6.90;6.20;;;25.70;82.60;;;;;;5073491;28;20452;-62
2021/07/05 11:04:31;;;;;;;5.30;4.90;;;26.30;53.60;;;;;;5073557;28;20441;-63
2021/07/05 11:07:19;;;;;;;5.33;4.83;;;26.80;1.00;;;;;;5073314;28;20458;-62
2021/07/05 11:09:52;;;;;;;5.37;4.87;;;27.30;1.00;;;;;;5073096;28;20430;-64
2021/07/05 11:12:33;;;;;;;5.13;4.70;;;27.50;1.00;;;;;;5073900;28;20765;-63
2021/07/05 11:15:00;;;;;;;5.13;4.70;;;26.80;1.00;;;;;;5073377;28;20495;-63
2021/07/05 11:17:26;;;;;;;4.87;4.50;;;26.50;1.00;;;;;;5072435;28;20433;-63
2021/07/05 11:19:55;;;;;;;4.93;4.53;;;26.50;1.00;;;;;;5072983;28;20517;-63
2021/07/05 11:22:35;;;;;;;5.10;4.70;;;26.80;1.00;;;;;;5073198;28;20442;-64
2021/07/05 11:25:22;;;;;;;5.23;4.70;;;27.60;1.00;;;;;;5073441;28;20841;-64
2021/07/05 11:27:49;;;;;;;5.20;4.47;;;27.80;1.00;;;;;;5072474;28;20481;-63
2021/07/05 11:30:26;;;;;;;8.27;5.57;;;27.90;1.00;;;;;;5073716;28;20895;-64
2021/07/05 11:33:01;;;;;;;4.60;4.30;;;27.20;1.00;;;;;;5073057;28;20446;-64
2021/07/05 11:35:40;;;;;;;4.73;4.40;;;27.20;1.00;;;;;;5073397;28;20916;-64
2021/07/05 11:38:34;;;;;;;4.83;4.53;;;27.40;1.00;;;;;;5072417;28;20442;-65
2021/07/05 11:41:12;;;;;;;4.23;3.93;;;27.70;1.00;;;;;;5073545;28;20820;-65
2021/07/05 11:43:58;;;;;;;4.30;3.70;;;27.50;1.00;;;;;;5073465;28;20445;-65
2021/07/05 11:46:26;;;;;;;3.90;3.60;;;27.30;1.00;;;;;;5072732;28;20478;-65
2021/07/05 11:48:58;;;;;;;5.17;4.50;;;26.90;1.00;;;;;;5062271;28;20773;-64
2021/07/05 11:51:33;;;;;;;3.73;3.50;;;26.50;1.00;;;;;;5072841;28;20426;-64
2021/07/05 11:54:01;;;;;;;4.10;3.60;;;26.90;1.00;;;;;;5071315;28;20488;-64
2021/07/05 11:56:28;;;;;;;4.23;3.83;;;26.90;1.00;;;;;;5072804;28;20433;-64
2021/07/05 11:58:54;;;;;;;4.13;3.83;;;27.10;1.00;;;;;;5072827;28;20595;-65
2021/07/05 12:01:21;;;;;;;3.53;3.33;;;26.80;1.00;;;;;;5052304;28;20964;-65
2021/07/05 12:03:55;;;;;;;3.57;2.93;;;26.20;1.00;;;;;;5053424;28;20435;-65
2021/07/05 12:06:21;;;;;;;3.73;3.37;;;25.30;99.90;;;;;;5053199;28;20805;-64
2021/07/05 12:09:13;;;;;;;4.00;3.60;;;25.00;1.00;;;;;;5053127;28;20434;-64
2021/07/05 12:11:45;;;;;;;3.60;3.33;;;24.70;1.00;;;;;;5053139;28;20514;-65
2021/07/05 12:14:13;;;;;;;3.77;3.27;;;24.20;99.90;;;;;;5053100;28;20518;-65
2021/07/05 12:16:42;;;;;;;4.53;4.13;;;24.10;99.90;;;;;;5053068;28;20767;-65
2021/07/05 12:19:12;;;;;;;4.40;4.00;;;24.10;99.90;;;;;;5052800;28;20518;-66
2021/07/05 12:21:42;;;;;;;4.90;4.50;;;24.10;1.00;;;;;;5053079;28;20437;-65
2021/07/05 12:24:20;;;;;;;4.67;4.27;;;24.30;1.00;;;;;;5052975;28;20489;-64
2021/07/05 12:27:11;;;;;;;5.53;5.03;;;23.90;99.90;;;;;;5052922;28;20466;-65
2021/07/05 12:29:50;;;;;;;5.60;4.60;;;23.50;99.90;;;;;;5051777;28;20434;-65
2021/07/05 12:32:18;;;;;;;6.33;5.73;;;23.10;99.90;;;;;;5053145;28;20510;-63
2021/07/05 12:34:49;;;;;;;5.73;4.73;;;22.80;1.00;;;;;;5052918;28;20455;-66
2021/07/05 12:37:25;;;;;;;6.00;5.50;;;22.70;1.00;;;;;;5052703;28;20435;-64
2021/07/05 12:39:52;;;;;;;4.87;4.40;;;22.80;1.00;;;;;;5052662;28;20452;-65
2021/07/05 12:42:38;;;;;;;5.30;4.80;;;22.60;1.00;;;;;;5053207;28;20427;-64
2021/07/05 12:45:13;;;;;;;5.50;5.00;;;22.30;1.00;;;;;;5061847;28;20441;-63
2021/07/05 12:47:55;;;;;;;5.03;4.60;;;22.20;1.00;;;;;;5076097;28;20987;-63
2021/07/05 12:50:33;;;;;;;6.90;4.50;;;21.80;46.50;;;;;;5076263;28;20429;-64